FAI orgVALCOMINO CUP 2019AeC Lega Piloti ASDASD ClubPR

Val Comino CUP 2019 - Campionato italiano

2019-08-25 to 2019-08-31, FAI Category 2 event

29/08/2019 - Task 5 – Open

2019-08-29 29/08/2019 - Task 5  - Stopped at 16:43  (scored back by 5 min.)

Race to Goal 66.3 km

Provisional

No Leg Dist. Id Radius Open Close Coordinates Altitude
1 0.0 km D015 400 m 12:55 14:55 Lat: 41.67772 Lon: 13.87242 1265 m
2 SS 0.0 km B041 11000 m 14:10 20:00 Lat: 41.69197 Lon: 13.74059 730 m
3 8.0 km B041 3000 m 14:10 20:00 Lat: 41.69197 Lon: 13.74059 730 m
4 21.9 km B010 1000 m 14:10 20:00 Lat: 41.62635 Lon: 13.93591 1480 m
5 32.6 km B051 2000 m 14:10 20:00 Lat: 41.63281 Lon: 13.79026 350 m
6 38.9 km B030 2000 m 14:10 20:00 Lat: 41.68185 Lon: 13.7138 595 m
7 50.8 km B065 20000 m 14:10 20:00 Lat: 41.88525 Lon: 13.47082 915 m
8 58.4 km B101 12000 m 14:10 20:00 Lat: 41.58882 Lon: 13.58379 530 m
9 ES 64.5 km A010 2000 m 14:10 20:00 Lat: 41.68788 Lon: 13.75389 420 m
10 66.3 km A010 200 m 14:10 20:00 Lat: 41.68788 Lon: 13.75389 420 m
StartGate(s): 14:10

# Id Name Nat Glider Sponsor SS ES Time km/h Distance Altitude Adj.
Distance
Dist.
Points
Lead.
Points
Time
Points
Total
1 178 Gianbasilio PROFITI M ITA GIN Boomerang 11 Auri 14:10:00 59.41 +960 63.25 899.9 61.9 962
2 119 Ivan CENTA M ITA UP Meru Superfly 360 Team Alpenplus 14:10:00 59.41 +944 63.18 899.0 61.8 961
3 114 Silvia BUZZI FERRARIS F ITA Ozone Enzo 3 Pandolf-Fly 14:10:00 59.47 +954 63.25 900.0 54.0 954
4 168 Federico NEVASTRO M ITA Swing Agera RS Omnia Costruzioni 14:10:00 59.04 +1050 63.24 899.9 50.6 951
5 196 Alessandro VALLERO M ITA Ozone Zeno Vairbration 14:10:00 60.06 +725 62.96 895.9 52.7 949
6 186 Andrea SAIONI M ITA Ozone Mantra M7 Para Delta Club Feltre 14:10:00 59.32 +854 62.73 892.6 53.9 947
7 117 Mirco CASARINI M ITA Ozone Zeno No 14:10:00 58.81 +966 62.68 891.8 52.1 944
8 190 Evangelos STAMELLOS M GRE GIN Leopard Www.O2Paragliding.Gr 14:10:00 57.53 +1093 61.90 880.8 61.2 942
9 165 Yevgen MIKHALCHUK M UKR Skywalk Poison X-alps 14:10:00 58.38 +1081 62.70 892.2 48.5 941
10 199 Davide ZALTRON M ITA Ozone Zeno Io Lo Porto A Casa 14:10:00 58.66 +898 62.24 885.7 47.0 933
11 155 Cyril LAMBERT M FRA UP Guru Up 14:10:00 57.02 +1049 61.21 871.0 61.2 932
12 195 Marco VALENTINI M ITA Ozone Zeno Malloy 14:10:00 57.76 +1078 62.07 883.2 46.8 930
12 185 Antonio RUTA M ITA Ozone Enzo 3 Ass Altivoli 14:10:00 58.24 +975 62.14 884.1 45.6 930
12 148 Bence HALASZ M HUN Ozone Zeno 14:10:00 57.25 +1100 61.65 877.2 52.9 930
15 145 Federico GUATTERI M ITA Ozone Zeno Elettromeccanica Medici 14:10:00 55.83 +1233 60.76 864.6 46.0 911
16 134 Richárd GABRIELI M HUN Niviuk Peak 4 Flyaway 14:10:00 57.10 +939 60.86 866.0 43.7 910
17 204 Sergio DI FAZIO M ITA Niviuk IcePeak 7 pro AeroClub della Ciociaria 14:10:00 57.62 +786 60.71 863.8 44.8 909
18 111 Federico BROWN MANZONE M ITA Ozone Enzo 3 Nuddu E Nenti 14:10:00 56.47 +425 57.96 824.7 62.3 887
19 161 Maurizio MAINA M ITA Ozone Enzo 3 Floricoltura Pecettese 14:10:00 55.48 +783 58.44 831.5 54.3 886
20 116 Tommaso CARLINI M ITA Ozone Delta 3 14:10:00 56.33 +724 59.21 842.5 41.8 884
21 135 Michele GAIBA M ITA Ozone Zeno My Iban Spa 14:10:00 55.63 +694 58.40 830.9 50.9 882
21 113 Marco BUSETTA M ITA Ozone Enzo 3 Bullet Speedbar - Ilpistacchio.It 14:10:00 53.92 +929 57.64 820.1 61.5 882
23 180 Alfio RAGAGLIA M ITA Ozone Enzo 3 14:10:00 57.13 0 57.13 812.9 66.7 880
24 108 Gabriele BONAFINI M ITA Advance Sigma 10 14:10:00 56.36 +701 59.08 840.7 38.1 879
25 101 Marco ALESSANDRINI M ITA Ozone Zeno Www.Concadoro.Com 14:10:00 56.73 +383 57.98 825.0 52.8 878
26 166 Mike MILLER M GBR UP Meru Up Paragliders Uk 14:10:00 54.15 +1004 58.16 827.6 46.7 874
27 175 Fulvio POLCINI M ITA Ozone Enzo 3 14:10:00 57.17 +68 57.40 816.7 55.4 872
28 198 Biagio Alberto VITALE M ITA Ozone Enzo 3 Aire Corbelli Dmd Casarini Tana Del Riccio Infopro 14:10:00 50.95 +1513 56.94 810.2 60.7 871
28 159 Jan LUEBBIG M SUI Flow Spectra Flyproducts.Ch 14:10:00 58.12 0 58.12 827.0 44.4 871
30 110 Michele BOSCHI M ITA UP Guru Up Paragliders - Sport Professional - Paradelta - Digifly - Aeci - Corsair - Air 14:10:00 56.24 0 56.24 800.2 67.5 868
31 194 Tiziano TRAMBAIOLI M ITA Flow Spectra Flow Paragliders 14:10:00 51.75 +1364 57.21 814.0 51.4 865
31 162 Andreas MALECKI M GER Ozone Enzo 3 Mwz 24 Flugschule-Chiemsee.De Ozone Dhv 14:10:00 51.63 +1310 56.87 809.2 55.7 865
33 118 Alberto CASTAGNA M ITA Ozone Zeno Www.Ti-Srl.Ti 14:10:00 57.22 +157 57.26 814.7 48.0 863
34 200 Paolo ZAMMARCHI M ITA GIN Boomerang 11 Pel-Team Sv-Check Point Cornizzolo 14:10:00 55.95 +235 56.38 802.3 54.6 857
35 151 Ioannis KARASIMOS M GRE GIN Boomerang Oxygenparagliding.Gr 14:10:00 51.19 +1239 56.15 798.9 55.7 855
36 122 Gianfranco CRESTANI M ITA Flow XC RACER Fado’ Pub Compass 14:10:00 56.35 +193 56.37 802.1 50.5 853
36 125 Didier DE SAINT ETIENNE M FRA UP Guru No 14:10:00 50.91 +1464 56.76 807.7 44.8 853
38 183 Marek ROBEL M POL UP Guru Diagmatic 14:10:00 50.60 +1786 55.54 790.2 61.5 852
38 167 Giuliano MINUTELLA M ITA Flow Spectra Eo Corp Ciro Spataro Medical Device Kortel 14:10:00 51.28 +1301 56.49 803.7 48.6 852
40 193 Moreno TONIN M ITA Ozone Zeno 14:10:00 52.16 +950 55.96 796.3 54.6 851
41 102 Matteo BACCHIOCCHI M ITA UP Meru Omfcrushingplants 14:10:00 53.41 +791 56.58 805.0 43.7 849
42 120 Rodrigue CHER M FRA Ozone Zeno 14:10:00 52.98 +839 56.34 801.6 46.4 848
42 139 Gabriele GARDINI M ITA Flow Spectra Fluo Flights 14:10:00 50.50 +1501 55.93 795.8 51.8 848
44 143 Antonio GOLFARI M ITA Ozone Zeno 14:10:00 51.43 +1144 56.01 797.0 48.5 846
45 105 Loris BERTA M ITA Ozone Enzo 3 Compass 14:10:00 50.66 +1846 55.46 789.1 55.4 845
45 133 Alessandro FUZZI M ITA Ozone Zeno 14:10:00 53.17 +775 56.27 800.7 44.4 845
47 172 Luca PAOLETTI M ITA Ozone Zeno 14:10:00 50.55 +1381 56.07 797.9 43.2 841
48 146 Remo GUCCIARDI M ITA Ozone Zeno Io 14:10:00 50.19 +1735 56.39 802.3 37.6 840
49 132 Roberto FORTI M ITA Ozone Zeno 14:10:00 49.91 +1696 55.41 788.4 44.8 833
50 126 Tudor DOROBANTU M ROU UP Meru Slavia Pharm , Tellur , Masina Engineering 14:10:00 55.32 -110 55.32 787.1 44.9 832
51 123 Giorgio DARRA M ITA Niviuk Icepeak Evox Pel 14:10:00 53.29 0 53.29 758.3 63.6 822
52 130 Marco FLANDINA M ITA Ozone Rush 5 14:10:00 49.57 +1452 55.38 788.0 28.7 817
52 158 Carel LUEBBIG M SUI Flow Spectra Flyproducts.Ch 14:10:00 50.16 +1463 56.01 797.0 20.2 817
54 149 Cristian INVERARDI M ITA Niviuk Icepeak Evox Nbb Infinity 14:10:00 53.36 0 53.36 759.3 57.1 816
54 197 Paolo VERATTI M ITA Ozone Zeno 14:10:00 52.87 +311 53.55 761.9 53.6 816
56 138 Eugenio GAMBARI M ITA Flow Spectra 14:10:00 53.53 0 53.53 761.7 53.6 815
57 150 Slawomir KACZYNSKI M POL Ozone Enzo 3 Etu 14:10:00 53.21 0 53.21 757.1 56.7 814
58 127 Angelo DELL'AIRA M ITA Ozone Zeno Idrotech 14:10:00 52.87 0 52.87 752.3 60.9 813
59 107 Oliver BLONSKE M GER Flow XC Racer Mwz 24 14:10:00 53.21 0 53.21 757.1 52.5 810
60 188 Walter SCHERLIN M ITA Ozone Enzo 3 14:10:00 52.99 0 52.99 754.0 53.3 807
61 192 Uwe TILLMANN M GER Ozone Enzo 3 14:10:00 52.29 0 52.29 744.0 61.4 805
62 141 Marco GENTILINI M ITA Flow XC Racer 14:10:00 50.02 +1091 53.67 763.7 34.0 798
63 189 Heinz SENONER M ITA GIN Explorer 14:10:00 52.25 +429 53.76 764.9 26.8 792
64 129 Paolo FACCHINI M ITA GIN Boomerang 11 / 14:10:00 47.87 +1121 52.29 744.0 43.4 787
65 201 Lorenzo ZAMPROGNO M ITA Ozone Mantra M7 Io 14:10:00 49.67 +829 52.98 753.9 30.5 784
65 153 Jakub KWIATKOWSKI M POL UP Trango X-Race Gcg 14:10:00 51.03 +451 52.83 751.8 32.5 784
67 121 Roberto COSTANTINO M ITA Ozone Enzo 3 14:10:00 51.35 +117 51.81 737.2 45.6 783
68 163 Luca MAMMUCARI M ITA Flow Spectra 14:10:00 48.33 +827 51.39 731.3 48.1 779
68 140 Andrea GAROLLA M ITA Ozone Enzo 3 No 14:10:00 52.17 +409 53.81 765.7 12.9 779
70 181 Massimo RAPARI M ITA Ozone Zeno 14:10:00 50.35 0 50.35 716.4 52.9 769
71 187 Roberto SALSI M ITA Ozone Mantra M7 Zenit Formazione 14:10:00 50.17 +510 52.21 742.9 25.2 768
72 182 Luca RIZZO M ITA Ozone Zeno 14:10:00 50.25 0 50.25 715.0 42.7 758
73 164 Michele MIEGGE M ITA Ozone Alpina Io 14:10:00 49.19 +528 51.30 730.0 26.8 757
74 173 Flavio PERONA M ITA Advance Omega XAlp 2 Vairbration 14:10:00 50.10 0 50.10 712.9 41.8 755
75 144 Rasa GRIGORAITIENE F LTU Ozone Zeno Abipa 14:10:00 48.51 0 48.51 690.2 42.7 733
76 154 Sandy LAMBERT F FRA Ozone Mantra M7 14:10:00 48.80 0 48.80 694.4 32.8 727
77 170 Paul Daniel PADURARU M ITA Ozone Alpina 3 Pro Blade Service. Orbital Italia. Slashto. I Falchi Di Federico 14:10:00 47.53 0 47.53 676.2 43.1 719
78 104 Hannes BAUER M ITA Flow Xc Racer 14:10:00 47.09 0 47.09 670.1 38.4 709
79 177 Martin PRINOTH M ITA Niviuk Artik P 4 Sangemini 14:10:00 47.39 0 47.39 674.3 33.8 708
79 171 Luciano PAGNONI M ITA Ozone Enzo 3 Www.Lisen.It 14:10:00 46.29 0 46.29 658.7 49.4 708
81 191 Martin STECHER M ITA UP Trango X-Race *** Speck && Kaas *** 14:10:00 44.79 +759 47.01 668.9 15.5 684
82 184 Elio ROSSI M ITA Ozone Enzo 3 Didiemme 14:10:00 42.27 0 42.27 601.4 50.6 652
83 103 Fabio BALZARANI M ITA Ozone Enzo 3 Me 14:10:00 42.00 0 42.00 597.6 38.8 636
84 112 Bruno BRUGNOLO M ITA GIN Boomerang 11 Compass - Next Generation Fight Instruments 14:10:00 40.93 0 40.93 582.4 41.6 624
85 203 Matteo SIRAGNA M ITA Ozone Mantra 7 Bar Gallo Case Rosse Selvarek 14:10:00 40.28 0 40.28 573.2 38.3 612
86 174 Piergiorgio PINTOSSI M ITA Ozone Zeno Pel 14:10:00 39.53 0 39.53 562.4 32.5 595
87 179 Stefano PUCCI M ITA Ozone Zeno My Wife 14:10:00 33.38 +1605 39.79 566.2 26.1 592
88 142 Matteo GIULIANI M ITA Niviuk Artik 4 14:10:00 39.12 0 39.12 556.7 27.5 584
89 160 Alessandro MADALUNI M ITA Ozone Rush 5 My Wife. 14:10:00 38.94 0 38.94 554.0 27.2 581
90 176 Alessandro POMPEI M ITA Ozone Delta 3 14:10:00 37.65 0 37.65 535.7 22.1 558
91 137 Luciano GALLO M ITA Ozone Enzo 3 14:10:00 33.68 +1029 37.05 527.2 527
92 152 Jacek KRZYZANOWSKI M POL Advance Sigma 10 Www.Poppyfarm.Pl 14:10:00 28.47 0 28.47 405.1 20.8 426
93 136 Bartek GALANTY M POL Triple Seven Queen 2 14:10:00 28.33 0 28.33 403.1 16.5 420
94 169 Angela OLVBACK F ITA Skywalk Chili 4 Giuliano Minutella 14:10:00 26.34 0 26.34 374.8 375
95 156 Marco LITTAMÈ M ITA Flow Spectra Luca-Lisa 14:10:00 20.57 0 20.57 292.7 293
96 124 Gabriele D'ARRIGO M ITA Ozone Enzo 3 Brasulrecca - Ai Pini 14:10:00 19.52 0 19.52 277.8 278
97 131 Giovanni FONTANESI M ITA UP Meru Magari 14:10:00 15.21 0 15.21 216.5 217
98 109 Giampietro BONARDI M ITA Flow Xc Racer Www.Svpievanisnc.It Team Sv 14:10:00 7.31 +1575 13.61 193.6 194
99 202 Agata KOWALSKA F POL 777 Queen 2 14:10:00 8.25 0 8.25 117.4 117
100 106 Daniele BEVILACQUA M ITA Flow Xc Racer 0.00 0 DNF 0.0 0

Notes

Id Name Note
101 Marco ALESSANDRINI Less than 100 meters from the airspace
102 Matteo BACCHIOCCHI Less than 100 meters from the airspace
104 Hannes BAUER Less than 100 meters from the airspace
109 Giampietro BONARDI Less than 100 meters from the airspace
110 Michele BOSCHI Less than 100 meters from the airspace
113 Marco BUSETTA Less than 100 meters from the airspace
114 Silvia BUZZI FERRARIS Less than 100 meters from the airspace
116 Tommaso CARLINI Less than 100 meters from the airspace
117 Mirco CASARINI Less than 100 meters from the airspace
118 Alberto CASTAGNA Less than 100 meters from the airspace
119 Ivan CENTA Less than 100 meters from the airspace
121 Roberto COSTANTINO Less than 100 meters from the airspace
122 Gianfranco CRESTANI Less than 100 meters from the airspace
123 Giorgio DARRA Less than 100 meters from the airspace
124 Gabriele D'ARRIGO Less than 100 meters from the airspace
125 Didier DE SAINT ETIENNE Less than 100 meters from the airspace
126 Tudor DOROBANTU Less than 100 meters from the airspace
127 Angelo DELL'AIRA Less than 100 meters from the airspace
129 Paolo FACCHINI Less than 100 meters from the airspace
131 Giovanni FONTANESI Less than 100 meters from the airspace
133 Alessandro FUZZI Less than 100 meters from the airspace
134 Richárd GABRIELI Less than 100 meters from the airspace
138 Eugenio GAMBARI Less than 100 meters from the airspace
139 Gabriele GARDINI Less than 100 meters from the airspace
140 Andrea GAROLLA Less than 100 meters from the airspace
141 Marco GENTILINI Less than 100 meters from the airspace
143 Antonio GOLFARI Less than 100 meters from the airspace
144 Rasa GRIGORAITIENE Less than 100 meters from the airspace
145 Federico GUATTERI Less than 100 meters from the airspace
148 Bence HALASZ Less than 100 meters from the airspace
149 Cristian INVERARDI Less than 100 meters from the airspace
150 Slawomir KACZYNSKI Less than 100 meters from the airspace
151 Ioannis KARASIMOS Less than 100 meters from the airspace
152 Jacek KRZYZANOWSKI Less than 100 meters from the airspace
155 Cyril LAMBERT Less than 100 meters from the airspace
156 Marco LITTAMÈ Less than 100 meters from the airspace
159 Jan LUEBBIG Less than 100 meters from the airspace
162 Andreas MALECKI Less than 100 meters from the airspace
163 Luca MAMMUCARI Less than 100 meters from the airspace
164 Michele MIEGGE Less than 100 meters from the airspace
165 Yevgen MIKHALCHUK Less than 100 meters from the airspace
166 Mike MILLER Less than 100 meters from the airspace
168 Federico NEVASTRO Less than 100 meters from the airspace
174 Piergiorgio PINTOSSI Less than 100 meters from the airspace
176 Alessandro POMPEI Less than 100 meters from the airspace
177 Martin PRINOTH Less than 100 meters from the airspace
178 Gianbasilio PROFITI Less than 100 meters from the airspace
179 Stefano PUCCI Less than 100 meters from the airspace
180 Alfio RAGAGLIA Less than 100 meters from the airspace
181 Massimo RAPARI Less than 100 meters from the airspace
182 Luca RIZZO Less than 100 meters from the airspace
184 Elio ROSSI Less than 100 meters from the airspace
185 Antonio RUTA Less than 100 meters from the airspace
190 Evangelos STAMELLOS Less than 100 meters from the airspace
193 Moreno TONIN Less than 100 meters from the airspace
198 Biagio Alberto VITALE Less than 100 meters from the airspace
199 Davide ZALTRON Less than 100 meters from the airspace
203 Matteo SIRAGNA Less than 100 meters from the airspace

Pilots absent from task (ABS)

Id Name
115 Vadym BYELKIN
128 Normann D'ORLANDO
147 Alessio GUIDI
157 Walter LO GIUDICE

Pilots not yet processed (NYP)

Id Name

Task statistics

param value
ss_distance 64.476
task_distance 66.276
launch_to_ess_distance 64.476
no_of_pilots_present 100
no_of_pilots_flying 99
no_of_pilots_lo 99
no_of_pilots_reaching_nom_dist 80
no_of_pilots_reaching_es 0
no_of_pilots_reaching_goal 0
sum_flown_distance 4865.008
best_dist 63.251
best_time 0
worst_time 0
no_of_pilots_in_competition 104
no_of_pilots_landed_before_stop 35
sum_dist_over_min 4596.907
sum_real_dist_over_min 4370.008
sum_flown_distances 4865.008
best_real_dist 60.061
last_start_time 2019-08-29T14:10:00+02:00
max_time_to_get_time_points 0
no_of_pilots_with_time_points 0
goalratio 0
arrival_weight 0
departure_weight 0
leading_weight 0.0175
time_weight 0.0825
distance_weight 0.9
smallest_leading_coefficient 1.37116948524793
available_points_distance 900
available_points_time 32.5
available_points_departure 0
available_points_leading 67.5
available_points_arrival 0
time_validity 1
launch_validity 1
distance_validity 1
stop_validity 1
day_quality 1
ftv_day_validity 1
time_points_stop_correction 0

Scoring formula settings

param value
id PWC2017
min_dist 5
nom_dist 45
nom_time 1.5
nom_launch 0.96
nom_goal 0.3
day_quality_override 0
bonus_gr 4
jump_the_gun_factor 0
jump_the_gun_max 0
normalize_1000_before_day_quality 0
time_points_if_not_in_goal 0
use_1000_points_for_max_day_quality 0
use_arrival_position_points 0
use_arrival_time_points 0
use_departure_points 0
use_difficulty_for_distance_points 0
use_distance_points 1
use_distance_squared_for_LC 1
use_leading_points 1
use_semi_circle_control_zone_for_goal_line 1
use_time_points 1
scoring_altitude GPS
final_glide_decelerator none
no_final_glide_decelerator_reason
min_time_span_for_valid_task 60
score_back_time 5
use_proportional_leading_weight_if_nobody_in_goal 0
leading_weight_factor 1
turnpoint_radius_tolerance 0.001
Report created: 2019-08-29T17:12:12+02:00

FS development, maintenance and support by